Victoria International

Airport
ICAO code: 
CYYJ
Summary
ICAO Region: 
NAM
Territory: 
Location: 
North Saanich, British Columbia,
Coordinates: 
Aerial View: 
48° 38' 48.841" N, 123° 25' 33.609" W
Metar
Observation
CYYJ 041700Z 28004KT 15SM -RA SCT013 BKN019 OVC047 02/02 A3008 RMK SC3SC3SC2 SLP189
Station
Victoria Int. Airport, B. C.
Date/Time
2021-12-04 17:00:00
Wind direction
280°
Wind speed
04 kts
Lowest cloud amount
scattered clouds
Temperature
2°C
Dew point
2°C
Humidity
100%
Weather condition
light rain

Description

Victoria International Airport serves Victoria, British Columbia, Canada. It is 12 nm north northwest of the city, in North Saanich, quite close to the town of Sidney on the Saanich Peninsula.

Climatology

Temperate Marine climate/Oceanic climate (Köppen climate classification Cfb). Moderately cool summer and comparatively warm winter.

Runways

Designator Length Width Surface Rops
13/31 1525 61 ASP Yes/Yes
2/20 1532 61 ASP Yes/Yes
9/27 2134 61 ASP Yes/Yes
Airport map: 
Aerial View: 

SKYbrary Partners:

Safety knowledge contributed by: